CheckWX is a tool to help pilots better visualize weather data.  It is not intended as a substitute for an official pre-flight weather briefing.

12:23:58 UTC

6L4 METAR
Logan County Airport
Logan, West Virginia, USA
Current

9 mins ago

K6L4 171215Z AUTO 00000KT 10SM CLR 02/M04 A3009 RMK AO2
Observed
Nov-17 @ 12:15 UTC
Visibility
10 SM
Flight Rules
VFR
Cloud Levels
  • Clear skies
Temperature
C / 36°F
Dewpoint
-4°C / 25°F
Humidity
65%
Altimeter
30.09" Hg
Pressure
1018.92 hPa
Previous

29 mins ago

K6L4 171155Z AUTO 00000KT 10SM CLR 01/M05 A3009 RMK AO2
Observed
Nov-17 @ 11:55 UTC
Visibility
10 SM
Flight Rules
VFR
Cloud Levels
  • Clear skies
Temperature
C / 34°F
Dewpoint
-5°C / 23°F
Humidity
65%
Altimeter
30.09" Hg
Pressure
1018.92 hPa
Previous

49 mins ago

K6L4 171135Z AUTO 00000KT 10SM CLR 01/M05 A3009 RMK AO2
Observed
Nov-17 @ 11:35 UTC
Visibility
10 SM
Flight Rules
VFR
Cloud Levels
  • Clear skies
Temperature
C / 34°F
Dewpoint
-5°C / 23°F
Humidity
65%
Altimeter
30.09" Hg
Pressure
1018.92 hPa